Latest Weather Observations for Luncheon Hill

IDT60801

Issued at 5:11 pm EST Thursday 18 July 2024 (issued every 10 minutes, with the page automatically refreshed every 10 minutes)

About weather observations | Map of weather stations | Latest weather observations for TAS | Other Formats
Station Details ID: 091259 Name: LUNCHEON HILL (FORESTRY) Lat: -41.15 Lon: 145.15 Height: 344.0 m
Data from the previous 72 hours. | See also: Recent months at Luncheon Hill
Date/Time
EST
Temp
°C
App
Temp
°C
Dew
Point
°C
Rel
Hum
%
Delta-T
°C
Wind Press
QNH
hPa
Press
MSL
hPa
Rain since
9am
mm
Dir  Spd
km/h
Gust
km/h
Spd
kts
Gust
kts
18/05:00pm 5.2 0.3 2.0 80 1.3 SSW 17 26 9 14 - - 0.0
18/04:30pm 5.8 1.0 2.6 80 1.3 SW 17 26 9 14 - - 0.0
18/04:00pm 5.5 -0.7 2.2 79 1.4 SSW 24 35 13 19 - - 0.0
18/03:30pm 6.5 -0.4 2.4 75 1.7 SSW 28 41 15 22 - - 0.0
18/03:00pm 6.3 0.3 3.3 81 1.3 SSW 24 39 13 21 - - 0.0
18/02:54pm 6.0 -0.9 2.8 80 1.3 SSW 28 46 15 25 - - 0.0
18/02:30pm 6.4 1.2 2.5 76 1.6 SSW 19 30 10 16 - - 0.0
18/02:00pm 8.2 3.1 3.1 70 2.2 SW 19 32 10 17 - - 0.0
18/01:30pm 8.0 2.7 2.9 70 2.2 SSW 20 33 11 18 - - 0.0
18/01:00pm 7.3 1.9 2.4 71 2.1 SSW 20 32 11 17 - - 0.0
18/12:30pm 8.2 3.1 3.9 74 1.9 S 20 35 11 19 - - 0.0
18/12:00pm 7.8 2.4 4.4 79 1.5 S 22 33 12 18 - - 0.0
18/11:30am 6.9 0.6 4.0 82 1.3 SSW 26 35 14 19 - - 0.0
18/11:00am 7.7 2.5 3.7 76 1.8 S 20 35 11 19 - - 0.0
18/10:30am 6.0 0.8 3.3 83 1.2 SSW 20 30 11 16 - - 0.0
18/10:00am 5.8 1.2 3.6 86 0.9 SSW 17 28 9 15 - - 0.0
18/09:30am 5.3 0.3 3.6 89 0.7 S 19 32 10 17 - - 0.0
18/09:00am 4.3 -1.0 3.1 92 0.5 S 20 28 11 15 - - 0.2
18/08:30am 4.3 -0.9 3.4 94 0.4 S 20 30 11 16 - - 0.2
18/08:00am 3.6 -2.8 3.0 96 0.2 S 26 37 14 20 - - 0.2
18/07:30am 3.1 -3.8 2.4 95 0.3 S 28 39 15 21 - - 0.0
18/07:00am 2.9 -4.4 2.2 95 0.3 S 30 43 16 23 - - 0.0
18/06:30am 2.6 -4.4 1.9 95 0.3 S 28 39 15 21 - - 0.0
18/06:00am 2.6 -4.0 1.9 95 0.3 S 26 37 14 20 - - 0.0
18/05:30am 2.6 -4.0 1.9 95 0.3 S 26 37 14 20 - - 0.0
18/05:00am 2.3 -4.0 1.6 95 0.3 S 24 33 13 18 - - 0.0
18/04:30am 2.6 -3.3 1.7 94 0.4 S 22 33 12 18 - - 0.0
18/04:00am 2.5 -3.1 1.3 92 0.5 S 20 32 11 17 - - 0.0
18/03:30am 2.7 -3.2 1.7 93 0.4 S 22 32 12 17 - - 0.0
18/03:00am 2.7 -3.2 1.5 92 0.5 SSE 22 35 12 19 - - 0.0
18/02:30am 2.8 -3.5 1.6 92 0.5 S 24 39 13 21 - - 0.0
18/02:00am 2.7 -4.0 1.4 91 0.5 S 26 41 14 22 - - 0.0
18/01:30am 2.5 -3.1 1.0 90 0.6 S 20 32 11 17 - - 0.0
18/01:00am 2.2 -3.9 0.7 90 0.6 S 22 33 12 18 - - 0.0
18/12:30am 2.2 -4.6 0.7 90 0.6 S 26 33 14 18 - - 0.0
18/12:00am 2.4 -4.0 0.9 90 0.6 S 24 35 13 19 - - 0.0
 
Date/Time
EST
Temp
°C
App
Temp
°C
Dew
Point
°C
Rel
Hum
%
Delta-T
°C
Wind Press
QNH
hPa
Press
MSL
hPa
Rain since
9am
mm
Dir  Spd
km/h
Gust
km/h
Spd
kts
Gust
kts
17/11:30pm 2.4 -3.6 1.1 91 0.5 S 22 32 12 17 - - 0.0
17/11:00pm 2.4 -3.2 1.1 91 0.5 S 20 28 11 15 - - 0.0
17/10:30pm 2.3 -3.3 1.3 93 0.4 S 20 28 11 15 - - 0.0
17/10:00pm 2.8 -2.8 1.5 91 0.5 S 20 28 11 15 - - 0.0
17/09:30pm 2.8 -2.6 1.5 91 0.5 S 19 26 10 14 - - 0.0
17/09:00pm 3.0 -1.6 1.4 89 0.6 S 15 26 8 14 - - 0.0
17/08:30pm 3.1 -1.9 1.5 89 0.6 S 17 24 9 13 - - 0.0
17/08:00pm 3.5 -1.4 1.7 88 0.7 S 17 24 9 13 - - 0.0
17/07:30pm 3.9 -0.7 1.8 86 0.8 S 15 24 8 13 - - 0.0
17/07:00pm 4.4 -1.1 1.9 84 1.0 SSE 20 35 11 19 - - 0.0
17/06:30pm 4.7 -1.1 2.1 83 1.1 S 22 35 12 19 - - 0.0
17/06:00pm 5.3 -0.1 2.5 82 1.2 S 20 30 11 16 - - 0.0
17/05:30pm 6.0 0.7 3.0 81 1.3 SSE 20 32 11 17 - - 0.0
17/05:00pm 7.5 3.4 4.5 81 1.3 SSE 15 20 8 11 - - 0.0
17/04:30pm 8.5 4.2 5.3 80 1.5 S 17 24 9 13 - - 0.0
17/04:00pm 9.2 4.4 5.4 77 1.8 S 20 32 11 17 - - 0.0
17/03:30pm 10.7 7.4 6.6 76 2.0 S 13 19 7 10 - - 0.0
17/03:00pm 12.6 9.5 7.3 70 2.6 S 13 19 7 10 - - 0.0
17/02:30pm 11.0 7.4 6.7 75 2.1 SSW 15 20 8 11 - - 0.0
17/02:00pm 10.7 7.2 7.0 78 1.8 SSW 15 24 8 13 - - 0.0
17/01:30pm 12.2 9.8 7.1 71 2.5 SW 9 17 5 9 - - 0.0
17/01:00pm 10.8 8.5 7.3 79 1.7 SSW 9 15 5 8 - - 0.0
17/12:30pm 11.1 8.8 7.6 79 1.7 SSW 9 13 5 7 - - 0.0
17/12:00pm 11.0 8.8 7.9 81 1.5 SSW 9 13 5 7 - - 0.0
17/11:30am 9.9 7.7 7.7 86 1.1 SW 9 13 5 7 - - 0.0
17/11:00am 9.6 7.9 7.4 86 1.1 WSW 6 13 3 7 - - 0.0
17/10:30am 9.3 8.1 7.9 91 0.7 SW 4 7 2 4 - - 0.0
17/10:00am 8.3 6.3 6.9 91 0.7 S 7 11 4 6 - - 0.0
17/09:30am 7.2 4.6 6.3 94 0.4 S 9 11 5 6 - - 0.0
17/09:00am 7.1 4.2 6.5 96 0.3 S 11 15 6 8 - - 0.2
17/08:30am 6.4 3.0 5.8 96 0.3 S 13 17 7 9 - - 0.2
17/08:00am 6.1 2.2 5.5 96 0.3 SSE 15 19 8 10 - - 0.2
17/07:30am 6.0 1.7 5.4 96 0.3 SSE 17 19 9 10 - - 0.2
17/07:00am 6.3 2.1 5.7 96 0.3 SSE 17 19 9 10 - - 0.2
17/06:30am 6.7 3.0 6.1 96 0.3 S 15 19 8 10 - - 0.2
17/06:00am 6.8 2.7 6.4 97 0.2 S 17 22 9 12 - - 0.2
17/05:30am 6.8 3.1 6.4 97 0.2 S 15 20 8 11 - - 0.0
17/05:00am 6.9 2.3 6.5 97 0.2 S 20 26 11 14 - - 0.0
17/04:30am 6.6 2.1 6.2 97 0.2 S 19 22 10 12 - - 0.0
17/04:00am 6.5 1.8 6.1 97 0.2 SSE 20 28 11 15 - - 0.0
17/03:30am 7.0 2.6 6.6 97 0.2 S 19 26 10 14 - - 0.0
17/03:00am 7.2 2.9 6.8 97 0.2 S 19 26 10 14 - - 0.0
17/02:30am 7.2 2.9 6.8 97 0.2 S 19 26 10 14 - - 0.0
17/02:00am 7.4 2.9 7.0 97 0.2 S 20 26 11 14 - - 0.0
17/01:30am 7.3 3.3 6.7 96 0.3 S 17 20 9 11 - - 0.0
17/01:00am 7.6 3.3 7.0 96 0.3 SSE 19 26 10 14 - - 0.0
17/12:30am 7.8 4.3 7.2 96 0.3 SSE 15 20 8 11 - - 0.0
17/12:00am 8.3 4.9 7.7 96 0.3 S 15 20 8 11 - - 0.0
 
Date/Time
EST
Temp
°C
App
Temp
°C
Dew
Point
°C
Rel
Hum
%
Delta-T
°C
Wind Press
QNH
hPa
Press
MSL
hPa
Rain since
9am
mm
Dir  Spd
km/h
Gust
km/h
Spd
kts
Gust
kts
16/11:30pm 8.5 4.4 7.7 95 0.4 S 19 22 10 12 - - 0.0
16/11:00pm 8.5 4.4 7.7 95 0.4 S 19 28 10 15 - - 0.0
16/10:30pm 8.8 4.7 8.0 95 0.4 S 19 26 10 14 - - 0.0
16/10:00pm 8.9 4.9 8.1 95 0.4 S 19 26 10 14 - - 0.0
16/09:30pm 8.9 4.7 8.1 95 0.4 S 20 28 11 15 - - 0.0
16/09:00pm 8.9 5.2 8.0 94 0.4 S 17 22 9 12 - - 0.0
16/08:30pm 9.1 4.9 8.2 94 0.4 S 20 28 11 15 - - 0.0
16/08:00pm 9.1 4.8 8.0 93 0.5 S 20 32 11 17 - - 0.0
16/07:30pm 9.1 4.8 7.9 92 0.6 S 20 32 11 17 - - 0.0
16/07:00pm 9.3 4.3 7.9 91 0.7 S 24 35 13 19 - - 0.0
16/06:30pm 9.4 4.7 7.8 90 0.8 S 22 32 12 17 - - 0.0
16/06:00pm 9.7 4.6 7.8 88 0.9 S 24 30 13 16 - - 0.0
16/05:30pm 10.0 4.9 7.6 85 1.2 S 24 32 13 17 - - 0.0
16/05:00pm 10.4 6.0 7.3 81 1.5 S 20 32 11 17 - - 0.0
16/04:30pm 10.6 6.3 6.9 78 1.8 S 19 28 10 15 - - 0.0
16/04:00pm 10.8 6.4 6.7 76 2.0 S 19 28 10 15 - - 0.0
16/03:30pm 11.4 6.9 6.9 74 2.2 S 20 30 11 16 - - 0.0
16/03:00pm 11.9 7.4 6.8 71 2.5 S 20 30 11 16 - - 0.0
16/02:30pm 12.9 9.4 7.4 69 2.7 S 15 28 8 15 - - 0.0
16/02:00pm 13.8 9.9 7.3 65 3.2 S 17 28 9 15 - - 0.0
16/01:30pm 14.3 10.1 7.6 64 3.4 S 19 28 10 15 - - 0.0
16/01:00pm 14.0 10.1 7.1 63 3.4 S 17 28 9 15 - - 0.0
16/12:30pm 15.0 12.4 9.4 69 2.9 SSE 13 20 7 11 - - 0.0
16/12:00pm 13.2 10.7 8.3 72 2.5 S 11 15 6 8 - - 0.0
16/11:30am 12.6 10.4 9.2 80 1.7 SSE 11 15 6 8 - - 0.0
16/11:00am 11.5 8.3 8.4 81 1.6 SSE 15 20 8 11 - - 0.0
16/10:30am 11.0 7.8 8.6 85 1.2 SSE 15 24 8 13 - - 0.0
16/10:00am 9.7 5.9 8.9 95 0.4 SSE 19 24 10 13 - - 0.0
16/09:30am 8.2 4.0 7.6 96 0.3 S 19 20 10 11 - - 0.0
16/09:00am 7.8 3.9 7.1 95 0.3 S 17 20 9 11 - - 1.8
16/08:30am 7.6 3.7 6.9 95 0.3 S 17 20 9 11 - - 1.8
16/08:00am 7.7 3.1 6.6 93 0.5 SSE 20 22 11 12 - - 1.8
16/07:30am 7.5 3.1 6.6 94 0.4 SSE 19 26 10 14 - - 1.8
16/07:00am 7.2 3.2 6.6 96 0.3 S 17 20 9 11 - - 1.8
16/06:30am 7.2 3.2 6.6 96 0.3 S 17 20 9 11 - - 1.8
16/06:00am 6.9 2.4 6.3 96 0.3 S 19 26 10 14 - - 1.6
16/05:30am 6.7 2.1 6.3 97 0.2 SSE 20 28 11 15 - - 1.6
16/05:00am 6.4 2.3 6.1 98 0.1 SSE 17 20 9 11 - - 1.6
16/04:30am 6.5 2.8 6.2 98 0.1 S 15 17 8 9 - - 1.6
16/04:00am 6.6 2.5 6.3 98 0.1 S 17 20 9 11 - - 1.6
16/03:30am 6.9 2.9 6.6 98 0.1 S 17 20 9 11 - - 1.6
16/03:00am 7.3 3.4 6.9 97 0.2 SSW 17 22 9 12 - - 1.6
16/02:30am 7.5 3.0 7.1 97 0.2 SSW 20 28 11 15 - - 1.6
16/02:00am 7.6 3.2 7.3 98 0.1 S 20 30 11 16 - - 1.6
16/01:30am 7.5 3.2 7.2 98 0.1 S 19 24 10 13 - - 1.6
16/01:00am 7.7 3.5 7.3 97 0.2 SSW 19 26 10 14 - - 1.6
16/12:30am 7.9 3.7 7.5 97 0.2 SSW 19 24 10 13 - - 1.6
16/12:00am 8.0 4.2 7.6 97 0.2 S 17 22 9 12 - - 1.6
 
Date/Time
EST
Temp
°C
App
Temp
°C
Dew
Point
°C
Rel
Hum
%
Delta-T
°C
Wind Press
QNH
hPa
Press
MSL
hPa
Rain since
9am
mm
Dir  Spd
km/h
Gust
km/h
Spd
kts
Gust
kts
15/11:30pm 8.0 4.6 7.6 97 0.2 S 15 26 8 14 - - 1.6
15/11:00pm 8.4 4.3 8.0 97 0.2 SSE 19 28 10 15 - - 1.4
15/10:30pm 8.7 3.0 8.3 97 0.2 S 28 41 15 22 - - 1.4
15/10:00pm 8.7 3.4 8.3 97 0.2 S 26 35 14 19 - - 1.4
15/09:30pm 8.8 3.1 8.4 97 0.2 S 28 39 15 21 - - 1.4
15/09:00pm 8.8 3.8 8.2 96 0.3 SSE 24 37 13 20 - - 1.4
15/08:30pm 9.1 4.2 8.5 96 0.3 S 24 37 13 20 - - 1.4
15/08:00pm 9.4 3.4 8.8 96 0.3 S 30 48 16 26 - - 1.4
15/07:37pm 9.6 4.1 9.0 96 0.3 S 28 46 15 25 - - 1.4
15/07:30pm 9.6 4.4 9.0 96 0.3 S 26 39 14 21 - - 1.4
15/07:08pm 9.7 4.2 9.2 97 0.3 S 28 46 15 25 - - 1.4
15/07:00pm 9.6 4.5 9.1 97 0.3 S 26 46 14 25 - - 1.4
15/06:30pm 9.5 3.2 9.0 97 0.3 S 32 57 17 31 - - 1.4
15/06:00pm 9.4 2.5 8.9 97 0.2 S 35 61 19 33 - - 1.4
15/05:30pm 9.3 1.2 8.8 97 0.2 S 41 69 22 37 - - 1.4

Other formats

Comma delimited format used in spreadsheet applications
http://www.bom.gov.au/fwo/IDT60801/IDT60801.95956.axf

JavaScript Object Notation format (JSON) in row-major order
http://www.bom.gov.au/fwo/IDT60801/IDT60801.95956.json

Data quality

Most of these data are generated automatically and are frequently updated. Quality checks on data are not normally performed. It is possible for incorrect values to appear. Refer to information at About Latest Weather Observations and please check the disclaimer before using these data.